Jane A. Bouchard — WDB4391 — position and weather

sailwx.info

Track history (hours):
 
Tides and Currents Weather Stations Pressure Air Temp Water Temp Dewpoint Dewpoint Depression Visibility Wind Speed Wind Dir Waves Ship Positions

Jane A. Bouchard

Owner: TUG JANE A BOUCHARD, MELVILLE, NY. More information available from US FCC via Universal Licensing System and Coast Guard Vessel Documentation Center.

Last reported at 2018-Jan-20 09:41 UTC. Time now 2018-Jan-21 04:54 UTC.
Position N 41°12' W 072°54'.

Length 163 m; draft 7 m.

Type: Towing. MMSI: 366897920.

Date/timePositionNaut miles runAvg speedWind from/ knotsBaromVisibWave heightAir tempDewpointWater temp
2018-Jan-20 09:41N 41°12' W 072°54'211.0
2018-Jan-20 09:30N 41°11' W 072°56'3111.1
2018-Jan-20 06:41N 40°57' W 073°33'210.4
2018-Jan-20 06:30N 40°56' W 073°36'510.5
2018-Jan-20 06:00N 40°54' W 073°42'510.1
2018-Jan-20 05:30N 40°50' W 073°47'4 7.9
2018-Jan-20 05:00N 40°48' W 073°51'4 8.1
2018-Jan-20 04:28N 40°47' W 073°56'4 8.7
2018-Jan-20 04:00N 40°43' W 073°58'4 7.8
2018-Jan-20 03:30N 40°40' W 074°02'0 0.1
2018-Jan-20 03:00N 40°40' W 074°02'0 0.0
2018-Jan-20 02:30N 40°40' W 074°02'0 0.0
2018-Jan-20 02:00N 40°40' W 074°02'0 0.1
2018-Jan-20 01:30N 40°40' W 074°02'0 0.0
2018-Jan-20 01:00N 40°40' W 074°02'0 0.3
2018-Jan-20 00:30N 40°40' W 074°02'0 0.1
2018-Jan-20 00:00N 40°40' W 074°02'0 0.1
2018-Jan-19 23:30N 40°40' W 074°02'1 1.1
2018-Jan-19 23:00N 40°40' W 074°03'3 6.3
2018-Jan-19 22:30N 40°39' W 074°07'3 5.8
2018-Jan-19 22:00N 40°39' W 074°11'3 6.9
2018-Jan-19 21:30N 40°36' W 074°12'3 5.4
2018-Jan-19 20:59N 40°33' W 074°14'0 0.0
2018-Jan-19 20:19N 40°33' W 074°14'2 7.1
2018-Jan-19 20:00N 40°35' W 074°12'4 8.7
2018-Jan-19 19:30N 40°39' W 074°09'1 2.7
2018-Jan-19 19:00N 40°39' W 074°07'0 0.0
2018-Jan-19 18:30N 40°39' W 074°07'0 0.0
2018-Jan-19 18:00N 40°39' W 074°07'0 0.0
2018-Jan-19 17:30N 40°39' W 074°07'0 0.0
2018-Jan-19 17:00N 40°39' W 074°07'0 0.0
2018-Jan-19 16:30N 40°39' W 074°07'0 0.0
2018-Jan-19 16:00N 40°39' W 074°07'0 0.0
2018-Jan-19 15:30N 40°39' W 074°07'0 0.0
2018-Jan-19 15:00N 40°39' W 074°07'0 0.0
2018-Jan-19 14:30N 40°39' W 074°07'0 0.0
2018-Jan-19 14:00N 40°39' W 074°07'0 0.0
2018-Jan-19 13:30N 40°39' W 074°07'0 0.0
2018-Jan-19 13:00N 40°39' W 074°07'0 0.0
2018-Jan-19 12:30N 40°39' W 074°07'0 0.0
2018-Jan-19 11:54N 40°39' W 074°07'0 0.0
2018-Jan-19 11:14N 40°39' W 074°07'0 0.0
2018-Jan-19 11:00N 40°39' W 074°07'0 0.0
2018-Jan-19 10:29N 40°39' W 074°07'0 0.0
2018-Jan-19 09:59N 40°39' W 074°07'0 0.0
2018-Jan-19 09:29N 40°39' W 074°07'0 0.0
2018-Jan-19 08:59N 40°39' W 074°07'0 0.0
2018-Jan-19 08:29N 40°39' W 074°07'0 0.0
2018-Jan-19 08:00N 40°39' W 074°07'0 0.0
2018-Jan-19 07:29N 40°39' W 074°07'0 0.0
2018-Jan-19 07:00N 40°39' W 074°07'0 0.0
2018-Jan-19 06:29N 40°39' W 074°07'0 0.0
2018-Jan-19 06:00N 40°39' W 074°07'0 0.0
2018-Jan-19 05:29N 40°39' W 074°07'0 0.0
2018-Jan-19 04:59N 40°39' W 074°07'0 0.0
2018-Jan-19 04:29N 40°39' W 074°07'0 0.0
2018-Jan-19 03:59N 40°39' W 074°07'0 0.0
2018-Jan-19 03:30N 40°39' W 074°07'0 0.0
2018-Jan-19 02:53N 40°39' W 074°07'0 0.0
2018-Jan-19 02:29N 40°39' W 074°07'0 0.0
2018-Jan-19 02:00N 40°39' W 074°07'0 0.0
2018-Jan-19 01:30N 40°39' W 074°07'0 0.0
2018-Jan-19 00:59N 40°39' W 074°07'0 0.0
2018-Jan-19 00:29N 40°39' W 074°07'0 0.0
2018-Jan-19 00:00N 40°39' W 074°07'0 0.0
2018-Jan-18 23:30N 40°39' W 074°07'0 0.0
2018-Jan-18 22:59N 40°39' W 074°07'0 0.0
2018-Jan-18 22:29N 40°39' W 074°07'0 0.0
2018-Jan-18 21:59N 40°39' W 074°07'0 0.0
2018-Jan-18 21:29N 40°39' W 074°07'0 0.0
2018-Jan-18 21:00N 40°39' W 074°07'0 0.0
2018-Jan-18 20:29N 40°39' W 074°07'0 0.0
2018-Jan-18 19:59N 40°39' W 074°07'0 0.3
2018-Jan-18 19:30N 40°39' W 074°07'0 0.2
2018-Jan-18 18:55N 40°39' W 074°07'0 0.0
2018-Jan-18 18:28N 40°39' W 074°07'0 0.0
2018-Jan-18 17:58N 40°39' W 074°07'0 0.0
2018-Jan-18 17:28N 40°39' W 074°07'0 0.0
2018-Jan-18 16:58N 40°39' W 074°07'0 0.0
2018-Jan-18 16:28N 40°39' W 074°07'0 0.0
2018-Jan-18 15:58N 40°39' W 074°07'0 0.0
2018-Jan-18 15:28N 40°39' W 074°07'0 0.0
2018-Jan-18 14:58N 40°39' W 074°07'0 0.0
2018-Jan-18 14:28N 40°39' W 074°07'0 0.0
2018-Jan-18 13:58N 40°39' W 074°07'0 0.0
2018-Jan-18 13:28N 40°39' W 074°07'0 0.0
2018-Jan-18 12:58N 40°39' W 074°07'0 0.0
2018-Jan-18 12:28N 40°39' W 074°07'0 0.0
2018-Jan-18 11:52N 40°39' W 074°07'0 0.0
2018-Jan-18 10:55N 40°39' W 074°07'1 3.3
2018-Jan-18 10:30N 40°38' W 074°09'3 1.0
2018-Jan-18 07:40N 40°37' W 074°12'1 9.4
2018-Jan-18 07:30N 40°38' W 074°11'5 9.2
2018-Jan-18 07:00N 40°39' W 074°05'5 9.6
2018-Jan-18 06:30N 40°43' W 074°02'612.6
2018-Jan-18 06:00N 40°49' W 073°58'612.0
2018-Jan-18 05:30N 40°54' W 073°55'  
2018-Jan-12 14:59N 40°36' W 074°12'0 0.0
2018-Jan-12 14:28N 40°36' W 074°12'0 0.0
2018-Jan-12 14:00N 40°36' W 074°12'0 0.0
2018-Jan-12 13:30N 40°36' W 074°12'0 0.0
2018-Jan-12 13:00N 40°36' W 074°12'0 0.0
2018-Jan-12 12:30N 40°36' W 074°12'0 0.0
2018-Jan-12 11:59N 40°36' W 074°12'0 0.0
2018-Jan-12 11:30N 40°36' W 074°12'0 0.0
2018-Jan-12 11:00N 40°36' W 074°12'0 0.0
2018-Jan-12 10:30N 40°36' W 074°12'0 0.0
2018-Jan-12 10:00N 40°36' W 074°12'0 0.0
2018-Jan-12 09:30N 40°36' W 074°12'0 0.0
2018-Jan-12 09:00N 40°36' W 074°12'0 0.0
2018-Jan-12 08:30N 40°36' W 074°12'0 0.0
2018-Jan-12 08:00N 40°36' W 074°12'0 0.0
2018-Jan-12 07:30N 40°36' W 074°12'0 0.0
2018-Jan-12 07:00N 40°36' W 074°12'0 0.0
2018-Jan-12 06:30N 40°36' W 074°12'0 0.0
2018-Jan-12 06:00N 40°36' W 074°12'0 0.0
2018-Jan-12 05:29N 40°36' W 074°12'0 0.0
2018-Jan-12 05:00N 40°36' W 074°12'0 0.0
2018-Jan-12 04:30N 40°36' W 074°12'0 0.0
2018-Jan-12 04:00N 40°36' W 074°12'0 0.0
2018-Jan-12 03:30N 40°36' W 074°12'0 0.0
2018-Jan-12 03:00N 40°36' W 074°12'0 0.0
2018-Jan-12 02:30N 40°36' W 074°12'0 0.0
2018-Jan-12 01:37N 40°36' W 074°12'2 0.8
2018-Jan-11 22:33N 40°38' W 074°12'0 7.5
2018-Jan-11 22:29N 40°38' W 074°12'4 7.0
2018-Jan-11 21:58N 40°39' W 074°07'0 0.0
2018-Jan-11 21:28N 40°39' W 074°07'0 0.0
2018-Jan-11 20:58N 40°39' W 074°07'0 0.6
2018-Jan-11 20:30N 40°39' W 074°07'0 0.2
2018-Jan-11 20:00N 40°39' W 074°07'0 0.0
2018-Jan-11 19:30N 40°39' W 074°07'0 0.0
2018-Jan-11 19:00N 40°39' W 074°07'0 0.0
2018-Jan-11 18:24N 40°39' W 074°07'0 0.0
2018-Jan-11 18:00N 40°39' W 074°07'0 0.0
2018-Jan-11 17:30N 40°39' W 074°07'0 0.0
2018-Jan-11 16:42N 40°39' W 074°07'0 0.0
2018-Jan-11 16:30N 40°39' W 074°07'0 0.0
2018-Jan-11 15:57N 40°39' W 074°07'0 0.0
2018-Jan-11 15:30N 40°39' W 074°07'0 0.0
2018-Jan-11 15:00N 40°39' W 074°07'0 0.0
2018-Jan-11 14:24N 40°39' W 074°07'0 0.0
2018-Jan-11 13:54N 40°39' W 074°07'0 0.0
2018-Jan-11 13:30N 40°39' W 074°07'0 0.0
2018-Jan-11 13:00N 40°39' W 074°07'0 0.0
2018-Jan-11 12:24N 40°39' W 074°07'0 0.0
2018-Jan-11 12:00N 40°39' W 074°07'0 0.0
2018-Jan-11 11:30N 40°39' W 074°07'0 0.0
2018-Jan-11 11:00N 40°39' W 074°07'0 0.0
2018-Jan-11 10:30N 40°39' W 074°07'0 0.0
2018-Jan-11 09:48N 40°39' W 074°07'0 0.0
2018-Jan-11 09:30N 40°39' W 074°07'0 0.0
2018-Jan-11 08:06N 40°39' W 074°07'0 0.0
2018-Jan-11 07:54N 40°39' W 074°07'0 0.0
2018-Jan-11 07:30N 40°39' W 074°07'0 0.0
2018-Jan-11 07:00N 40°39' W 074°07'0 0.0
2018-Jan-11 06:30N 40°39' W 074°07'0 0.0
2018-Jan-11 06:00N 40°39' W 074°07'0 0.0
2018-Jan-11 05:30N 40°39' W 074°07'0 0.0
2018-Jan-11 04:54N 40°39' W 074°07'0 0.0
2018-Jan-11 04:30N 40°39' W 074°07'0 0.0
2018-Jan-11 04:00N 40°39' W 074°07'0 0.0
2018-Jan-11 03:30N 40°39' W 074°07'0 0.0
2018-Jan-11 03:00N 40°39' W 074°07'0 0.0
2018-Jan-11 01:15N 40°39' W 074°07'0 0.0
2018-Jan-11 00:54N 40°39' W 074°07'0 0.0
2018-Jan-11 00:24N 40°39' W 074°07'0 0.0
2018-Jan-10 23:54N 40°39' W 074°07'0 0.0
2018-Jan-10 20:21N 40°39' W 074°07'0 0.0
2018-Jan-10 20:00N 40°39' W 074°07'0 0.0
2018-Jan-10 19:24N 40°39' W 074°07'0 0.0
2018-Jan-10 18:54N 40°39' W 074°07'0 0.0
2018-Jan-10 18:30N 40°39' W 074°07'0 0.0
2018-Jan-10 17:30N 40°39' W 074°07'0 0.0
2018-Jan-10 13:28N 40°39' W 074°07'3 7.5
2018-Jan-10 13:00N 40°40' W 074°03'0 0.0
2018-Jan-10 12:28N 40°40' W 074°03'0 0.0
2018-Jan-10 11:57N 40°40' W 074°03'0 0.0
2018-Jan-10 11:30N 40°40' W 074°03'0 0.1
2018-Jan-10 11:00N 40°40' W 074°03'0 0.1
2018-Jan-10 10:31N 40°40' W 074°03'0 0.1
2018-Jan-10 10:00N 40°40' W 074°03'  
Track history (hours):
 
Tides and Currents Weather Stations Pressure Air Temp Water Temp Dewpoint Dewpoint Depression Visibility Wind Speed Wind Dir Waves Ship Positions

Jane A. Bouchard

Owner: TUG JANE A BOUCHARD, MELVILLE, NY. More information available from US FCC via Universal Licensing System and Coast Guard Vessel Documentation Center.

Last reported at 2018-Jan-20 09:41 UTC. Time now 2018-Jan-21 04:54 UTC.
Position N 41°12' W 072°54'.

Length 163 m; draft 7 m.

Type: Towing. MMSI: 366897920.

Date/timePositionNaut miles runAvg speedWind from/ knotsBaromVisibWave heightAir tempDewpointWater temp
2018-Jan-20 09:41N 41°12' W 072°54'211.0
2018-Jan-20 09:30N 41°11' W 072°56'3111.1
2018-Jan-20 06:41N 40°57' W 073°33'210.4
2018-Jan-20 06:30N 40°56' W 073°36'510.5
2018-Jan-20 06:00N 40°54' W 073°42'510.1
2018-Jan-20 05:30N 40°50' W 073°47'4 7.9
2018-Jan-20 05:00N 40°48' W 073°51'4 8.1
2018-Jan-20 04:28N 40°47' W 073°56'4 8.7
2018-Jan-20 04:00N 40°43' W 073°58'4 7.8
2018-Jan-20 03:30N 40°40' W 074°02'0 0.1
2018-Jan-20 03:00N 40°40' W 074°02'0 0.0
2018-Jan-20 02:30N 40°40' W 074°02'0 0.0
2018-Jan-20 02:00N 40°40' W 074°02'0 0.1
2018-Jan-20 01:30N 40°40' W 074°02'0 0.0
2018-Jan-20 01:00N 40°40' W 074°02'0 0.3
2018-Jan-20 00:30N 40°40' W 074°02'0 0.1
2018-Jan-20 00:00N 40°40' W 074°02'0 0.1
2018-Jan-19 23:30N 40°40' W 074°02'1 1.1
2018-Jan-19 23:00N 40°40' W 074°03'3 6.3
2018-Jan-19 22:30N 40°39' W 074°07'3 5.8
2018-Jan-19 22:00N 40°39' W 074°11'3 6.9
2018-Jan-19 21:30N 40°36' W 074°12'3 5.4
2018-Jan-19 20:59N 40°33' W 074°14'0 0.0
2018-Jan-19 20:19N 40°33' W 074°14'2 7.1
2018-Jan-19 20:00N 40°35' W 074°12'4 8.7
2018-Jan-19 19:30N 40°39' W 074°09'1 2.7
2018-Jan-19 19:00N 40°39' W 074°07'0 0.0
2018-Jan-19 18:30N 40°39' W 074°07'0 0.0
2018-Jan-19 18:00N 40°39' W 074°07'0 0.0
2018-Jan-19 17:30N 40°39' W 074°07'0 0.0
2018-Jan-19 17:00N 40°39' W 074°07'0 0.0
2018-Jan-19 16:30N 40°39' W 074°07'0 0.0
2018-Jan-19 16:00N 40°39' W 074°07'0 0.0
2018-Jan-19 15:30N 40°39' W 074°07'0 0.0
2018-Jan-19 15:00N 40°39' W 074°07'0 0.0
2018-Jan-19 14:30N 40°39' W 074°07'0 0.0
2018-Jan-19 14:00N 40°39' W 074°07'0 0.0
2018-Jan-19 13:30N 40°39' W 074°07'0 0.0
2018-Jan-19 13:00N 40°39' W 074°07'0 0.0
2018-Jan-19 12:30N 40°39' W 074°07'0 0.0
2018-Jan-19 11:54N 40°39' W 074°07'0 0.0
2018-Jan-19 11:14N 40°39' W 074°07'0 0.0
2018-Jan-19 11:00N 40°39' W 074°07'0 0.0
2018-Jan-19 10:29N 40°39' W 074°07'0 0.0
2018-Jan-19 09:59N 40°39' W 074°07'0 0.0
2018-Jan-19 09:29N 40°39' W 074°07'0 0.0
2018-Jan-19 08:59N 40°39' W 074°07'0 0.0
2018-Jan-19 08:29N 40°39' W 074°07'0 0.0
2018-Jan-19 08:00N 40°39' W 074°07'0 0.0
2018-Jan-19 07:29N 40°39' W 074°07'0 0.0
2018-Jan-19 07:00N 40°39' W 074°07'0 0.0
2018-Jan-19 06:29N 40°39' W 074°07'0 0.0
2018-Jan-19 06:00N 40°39' W 074°07'0 0.0
2018-Jan-19 05:29N 40°39' W 074°07'0 0.0
2018-Jan-19 04:59N 40°39' W 074°07'0 0.0
2018-Jan-19 04:29N 40°39' W 074°07'0 0.0
2018-Jan-19 03:59N 40°39' W 074°07'0 0.0
2018-Jan-19 03:30N 40°39' W 074°07'0 0.0
2018-Jan-19 02:53N 40°39' W 074°07'0 0.0
2018-Jan-19 02:29N 40°39' W 074°07'0 0.0
2018-Jan-19 02:00N 40°39' W 074°07'0 0.0
2018-Jan-19 01:30N 40°39' W 074°07'0 0.0
2018-Jan-19 00:59N 40°39' W 074°07'0 0.0
2018-Jan-19 00:29N 40°39' W 074°07'0 0.0
2018-Jan-19 00:00N 40°39' W 074°07'0 0.0
2018-Jan-18 23:30N 40°39' W 074°07'0 0.0
2018-Jan-18 22:59N 40°39' W 074°07'0 0.0
2018-Jan-18 22:29N 40°39' W 074°07'0 0.0
2018-Jan-18 21:59N 40°39' W 074°07'0 0.0
2018-Jan-18 21:29N 40°39' W 074°07'0 0.0
2018-Jan-18 21:00N 40°39' W 074°07'0 0.0
2018-Jan-18 20:29N 40°39' W 074°07'0 0.0
2018-Jan-18 19:59N 40°39' W 074°07'0 0.3
2018-Jan-18 19:30N 40°39' W 074°07'0 0.2
2018-Jan-18 18:55N 40°39' W 074°07'0 0.0
2018-Jan-18 18:28N 40°39' W 074°07'0 0.0
2018-Jan-18 17:58N 40°39' W 074°07'0 0.0
2018-Jan-18 17:28N 40°39' W 074°07'0 0.0
2018-Jan-18 16:58N 40°39' W 074°07'0 0.0
2018-Jan-18 16:28N 40°39' W 074°07'0 0.0
2018-Jan-18 15:58N 40°39' W 074°07'0 0.0
2018-Jan-18 15:28N 40°39' W 074°07'0 0.0
2018-Jan-18 14:58N 40°39' W 074°07'0 0.0
2018-Jan-18 14:28N 40°39' W 074°07'0 0.0
2018-Jan-18 13:58N 40°39' W 074°07'0 0.0
2018-Jan-18 13:28N 40°39' W 074°07'0 0.0
2018-Jan-18 12:58N 40°39' W 074°07'0 0.0
2018-Jan-18 12:28N 40°39' W 074°07'0 0.0
2018-Jan-18 11:52N 40°39' W 074°07'0 0.0
2018-Jan-18 10:55N 40°39' W 074°07'1 3.3
2018-Jan-18 10:30N 40°38' W 074°09'3 1.0
2018-Jan-18 07:40N 40°37' W 074°12'1 9.4
2018-Jan-18 07:30N 40°38' W 074°11'5 9.2
2018-Jan-18 07:00N 40°39' W 074°05'5 9.6
2018-Jan-18 06:30N 40°43' W 074°02'612.6
2018-Jan-18 06:00N 40°49' W 073°58'612.0
2018-Jan-18 05:30N 40°54' W 073°55'  
2018-Jan-12 14:59N 40°36' W 074°12'0 0.0
2018-Jan-12 14:28N 40°36' W 074°12'0 0.0
2018-Jan-12 14:00N 40°36' W 074°12'0 0.0
2018-Jan-12 13:30N 40°36' W 074°12'0 0.0
2018-Jan-12 13:00N 40°36' W 074°12'0 0.0
2018-Jan-12 12:30N 40°36' W 074°12'0 0.0
2018-Jan-12 11:59N 40°36' W 074°12'0 0.0
2018-Jan-12 11:30N 40°36' W 074°12'0 0.0
2018-Jan-12 11:00N 40°36' W 074°12'0 0.0
2018-Jan-12 10:30N 40°36' W 074°12'0 0.0
2018-Jan-12 10:00N 40°36' W 074°12'0 0.0
2018-Jan-12 09:30N 40°36' W 074°12'0 0.0
2018-Jan-12 09:00N 40°36' W 074°12'0 0.0
2018-Jan-12 08:30N 40°36' W 074°12'0 0.0
2018-Jan-12 08:00N 40°36' W 074°12'0 0.0
2018-Jan-12 07:30N 40°36' W 074°12'0 0.0
2018-Jan-12 07:00N 40°36' W 074°12'0 0.0
2018-Jan-12 06:30N 40°36' W 074°12'0 0.0
2018-Jan-12 06:00N 40°36' W 074°12'0 0.0
2018-Jan-12 05:29N 40°36' W 074°12'0 0.0
2018-Jan-12 05:00N 40°36' W 074°12'0 0.0
2018-Jan-12 04:30N 40°36' W 074°12'0 0.0
2018-Jan-12 04:00N 40°36' W 074°12'0 0.0
2018-Jan-12 03:30N 40°36' W 074°12'0 0.0
2018-Jan-12 03:00N 40°36' W 074°12'0 0.0
2018-Jan-12 02:30N 40°36' W 074°12'0 0.0
2018-Jan-12 01:37N 40°36' W 074°12'2 0.8
2018-Jan-11 22:33N 40°38' W 074°12'0 7.5
2018-Jan-11 22:29N 40°38' W 074°12'4 7.0
2018-Jan-11 21:58N 40°39' W 074°07'0 0.0
2018-Jan-11 21:28N 40°39' W 074°07'0 0.0
2018-Jan-11 20:58N 40°39' W 074°07'0 0.6
2018-Jan-11 20:30N 40°39' W 074°07'0 0.2
2018-Jan-11 20:00N 40°39' W 074°07'0 0.0
2018-Jan-11 19:30N 40°39' W 074°07'0 0.0
2018-Jan-11 19:00N 40°39' W 074°07'0 0.0
2018-Jan-11 18:24N 40°39' W 074°07'0 0.0
2018-Jan-11 18:00N 40°39' W 074°07'0 0.0
2018-Jan-11 17:30N 40°39' W 074°07'0 0.0
2018-Jan-11 16:42N 40°39' W 074°07'0 0.0
2018-Jan-11 16:30N 40°39' W 074°07'0 0.0
2018-Jan-11 15:57N 40°39' W 074°07'0 0.0
2018-Jan-11 15:30N 40°39' W 074°07'0 0.0
2018-Jan-11 15:00N 40°39' W 074°07'0 0.0
2018-Jan-11 14:24N 40°39' W 074°07'0 0.0
2018-Jan-11 13:54N 40°39' W 074°07'0 0.0
2018-Jan-11 13:30N 40°39' W 074°07'0 0.0
2018-Jan-11 13:00N 40°39' W 074°07'0 0.0
2018-Jan-11 12:24N 40°39' W 074°07'0 0.0
2018-Jan-11 12:00N 40°39' W 074°07'0 0.0
2018-Jan-11 11:30N 40°39' W 074°07'0 0.0
2018-Jan-11 11:00N 40°39' W 074°07'0 0.0
2018-Jan-11 10:30N 40°39' W 074°07'0 0.0
2018-Jan-11 09:48N 40°39' W 074°07'0 0.0
2018-Jan-11 09:30N 40°39' W 074°07'0 0.0
2018-Jan-11 08:06N 40°39' W 074°07'0 0.0
2018-Jan-11 07:54N 40°39' W 074°07'0 0.0
2018-Jan-11 07:30N 40°39' W 074°07'0 0.0
2018-Jan-11 07:00N 40°39' W 074°07'0 0.0
2018-Jan-11 06:30N 40°39' W 074°07'0 0.0
2018-Jan-11 06:00N 40°39' W 074°07'0 0.0
2018-Jan-11 05:30N 40°39' W 074°07'0 0.0
2018-Jan-11 04:54N 40°39' W 074°07'0 0.0
2018-Jan-11 04:30N 40°39' W 074°07'0 0.0
2018-Jan-11 04:00N 40°39' W 074°07'0 0.0
2018-Jan-11 03:30N 40°39' W 074°07'0 0.0
2018-Jan-11 03:00N 40°39' W 074°07'0 0.0
2018-Jan-11 01:15N 40°39' W 074°07'0 0.0
2018-Jan-11 00:54N 40°39' W 074°07'0 0.0
2018-Jan-11 00:24N 40°39' W 074°07'0 0.0
2018-Jan-10 23:54N 40°39' W 074°07'0 0.0
2018-Jan-10 20:21N 40°39' W 074°07'0 0.0
2018-Jan-10 20:00N 40°39' W 074°07'0 0.0
2018-Jan-10 19:24N 40°39' W 074°07'0 0.0
2018-Jan-10 18:54N 40°39' W 074°07'0 0.0
2018-Jan-10 18:30N 40°39' W 074°07'0 0.0
2018-Jan-10 17:30N 40°39' W 074°07'0 0.0
2018-Jan-10 13:28N 40°39' W 074°07'3 7.5
2018-Jan-10 13:00N 40°40' W 074°03'0 0.0
2018-Jan-10 12:28N 40°40' W 074°03'0 0.0
2018-Jan-10 11:57N 40°40' W 074°03'0 0.0
2018-Jan-10 11:30N 40°40' W 074°03'0 0.1
2018-Jan-10 11:00N 40°40' W 074°03'0 0.1
2018-Jan-10 10:31N 40°40' W 074°03'0 0.1
2018-Jan-10 10:00N 40°40' W 074°03'  

Dump ship's entire track history